Time;durP1;ratioP1;P1;durP2;ratioP2;P2;SDS_P1;SDS_P2;PMS_P1;PMS_P2;Temp;Humidity;BMP_temperature;BMP_pressure;BME280_temperature;BME280_humidity;BME280_pressure;Samples;Min_cycle;Max_cycle;Signal;HPM_P1;HPM_P2
2022/03/17 00:02:09;;;;;;;19.83;4.90;;;24.50;99.90;;;;;;5041100;28;20213;-77
2022/03/17 00:04:40;;;;;;;10.02;2.50;;;24.50;99.90;;;;;;5046839;28;20194;-77
2022/03/17 00:07:10;;;;;;;8.25;2.00;;;24.60;99.90;;;;;;5054397;28;20559;-78
2022/03/17 00:09:41;;;;;;;5.55;2.00;;;24.70;99.90;;;;;;5052009;28;20191;-78
2022/03/17 00:12:14;;;;;;;8.95;2.17;;;24.70;99.90;;;;;;5053361;28;20201;-78
2022/03/17 00:14:44;;;;;;;9.77;2.00;;;24.80;99.90;;;;;;5051369;28;20206;-77
2022/03/17 00:17:16;;;;;;;5.72;1.90;;;24.70;99.90;;;;;;5045714;28;20189;-76
2022/03/17 00:19:47;;;;;;;4.57;1.52;;;24.80;99.90;;;;;;5043380;28;20212;-77
2022/03/17 00:22:18;;;;;;;7.18;2.05;;;24.80;99.90;;;;;;5052927;28;20594;-78
2022/03/17 00:24:48;;;;;;;8.45;1.90;;;24.90;99.90;;;;;;5047033;28;20640;-81
2022/03/17 00:27:21;;;;;;;7.93;1.85;;;25.00;99.90;;;;;;5043368;28;20269;-83
2022/03/17 00:29:52;;;;;;;8.23;1.73;;;25.00;99.90;;;;;;5051750;28;20204;-84
2022/03/17 00:32:23;;;;;;;7.45;2.47;;;25.10;99.90;;;;;;5047676;28;20277;-81
2022/03/17 00:37:52;;;;;;;6.45;1.73;;;25.30;99.90;;;;;;4973491;28;20201;-82
2022/03/17 00:40:23;;;;;;;4.88;1.73;;;25.30;99.90;;;;;;5034423;28;20220;-81
2022/03/17 00:42:56;;;;;;;5.20;1.67;;;25.40;99.90;;;;;;5051437;28;20248;-83
2022/03/17 00:45:27;;;;;;;6.00;1.92;;;25.40;99.90;;;;;;5052812;28;20189;-81
2022/03/17 00:47:57;;;;;;;6.80;1.90;;;25.40;99.90;;;;;;5053289;28;20666;-82
2022/03/17 00:50:28;;;;;;;6.40;2.30;;;25.60;99.90;;;;;;5053494;28;20641;-82
2022/03/17 00:52:59;;;;;;;4.65;1.80;;;25.60;99.90;;;;;;5052766;28;20189;-81
2022/03/17 00:55:30;;;;;;;5.82;1.70;;;25.70;99.90;;;;;;5053242;28;20216;-82
2022/03/17 00:58:02;;;;;;;7.18;1.75;;;25.70;99.90;;;;;;5051523;28;20181;-82
2022/03/17 01:00:33;;;;;;;8.48;2.00;;;25.80;99.90;;;;;;5053028;28;20206;-84
2022/03/17 01:03:05;;;;;;;7.00;1.90;;;25.90;99.90;;;;;;5053201;28;20189;-79
2022/03/17 01:05:36;;;;;;;5.63;2.03;;;26.00;99.90;;;;;;5051923;28;20190;-81
2022/03/17 01:08:07;;;;;;;7.13;2.35;;;26.00;99.90;;;;;;5052720;28;20664;-82
2022/03/17 01:10:38;;;;;;;7.00;2.47;;;26.00;99.90;;;;;;5052697;28;20186;-81
2022/03/17 01:13:11;;;;;;;28.08;7.78;;;25.80;99.90;;;;;;5050777;28;20186;-81
2022/03/17 01:15:42;;;;;;;16.05;4.38;;;25.60;99.90;;;;;;5048863;28;20213;-81
2022/03/17 01:18:12;;;;;;;7.20;2.17;;;25.60;99.90;;;;;;5051281;28;20193;-82
2022/03/17 01:20:44;;;;;;;7.68;1.77;;;25.60;99.90;;;;;;5051753;28;20252;-81
2022/03/17 01:23:15;;;;;;;4.95;1.60;;;25.70;99.90;;;;;;5050982;28;20194;-82
2022/03/17 01:25:46;;;;;;;4.53;1.95;;;25.90;99.90;;;;;;5051342;28;20689;-82
2022/03/17 01:28:18;;;;;;;8.13;1.77;;;26.00;99.90;;;;;;5049081;28;20185;-86
2022/03/17 01:30:50;;;;;;;6.93;1.70;;;26.10;99.90;;;;;;5048398;28;20190;-85
2022/03/17 01:33:21;;;;;;;7.10;1.63;;;26.40;99.90;;;;;;5052291;28;20194;-75
2022/03/17 01:35:51;;;;;;;5.00;1.85;;;26.30;99.90;;;;;;5051503;28;20213;-78
2022/03/17 01:38:23;;;;;;;4.78;1.90;;;26.30;99.90;;;;;;5047065;28;20252;-78
2022/03/17 01:40:53;;;;;;;9.05;1.98;;;26.40;99.90;;;;;;5049430;28;20244;-77
2022/03/17 01:43:26;;;;;;;8.77;1.90;;;26.40;99.90;;;;;;5038649;28;20237;-78
2022/03/17 01:45:57;;;;;;;5.00;1.50;;;26.50;99.90;;;;;;5049977;28;20562;-77
2022/03/17 01:48:27;;;;;;;4.45;1.70;;;26.40;99.90;;;;;;5041275;28;20186;-80
2022/03/17 05:39:02;;;;;;;6.22;1.38;;;25.50;99.90;;;;;;5110504;27;21096;-77
2022/03/17 05:41:32;;;;;;;5.75;1.20;;;25.40;99.90;;;;;;5094640;28;20219;-78
2022/03/17 05:44:03;;;;;;;5.93;1.20;;;25.40;99.90;;;;;;5091727;28;20692;-79
2022/03/17 05:46:33;;;;;;;4.15;1.02;;;25.40;99.90;;;;;;5087617;28;20180;-77
2022/03/17 05:49:04;;;;;;;5.75;1.30;;;25.40;99.90;;;;;;5090965;28;20558;-85
2022/03/17 05:51:35;;;;;;;5.70;1.02;;;25.40;99.90;;;;;;5084032;28;20681;-83
2022/03/17 05:54:07;;;;;;;3.63;1.00;;;25.40;99.90;;;;;;5094189;28;20192;-85
2022/03/17 05:56:38;;;;;;;6.43;1.33;;;25.40;99.90;;;;;;5086726;28;20184;-83
2022/03/17 05:59:09;;;;;;;4.78;1.40;;;25.40;99.90;;;;;;5089823;28;20635;-81
2022/03/17 06:01:39;;;;;;;3.88;1.10;;;25.40;99.90;;;;;;5085826;28;20644;-83
2022/03/17 06:04:10;;;;;;;4.47;1.13;;;25.40;99.90;;;;;;5089173;28;20192;-77
2022/03/17 06:06:41;;;;;;;4.72;1.10;;;25.30;99.90;;;;;;5083850;28;20201;-77
2022/03/17 06:09:13;;;;;;;5.80;1.20;;;25.20;99.90;;;;;;5087597;28;20195;-78
2022/03/17 06:11:44;;;;;;;4.40;1.20;;;25.20;99.90;;;;;;5089723;28;20184;-77
2022/03/17 06:14:14;;;;;;;6.05;1.40;;;25.10;99.90;;;;;;5089402;28;20705;-78
2022/03/17 06:16:45;;;;;;;5.18;1.33;;;25.00;99.90;;;;;;5089653;28;20185;-78
2022/03/17 06:19:16;;;;;;;6.60;1.40;;;25.00;99.90;;;;;;5089075;28;20548;-83
2022/03/17 06:21:46;;;;;;;4.53;1.20;;;24.90;99.90;;;;;;5089212;28;20192;-81
2022/03/17 06:24:19;;;;;;;4.10;1.20;;;24.90;99.90;;;;;;5089206;28;20266;-84
2022/03/17 06:26:49;;;;;;;4.72;1.10;;;24.90;99.90;;;;;;5089509;28;20249;-82
2022/03/17 06:29:20;;;;;;;5.05;1.08;;;24.90;99.90;;;;;;5089161;28;20562;-82
2022/03/17 06:31:51;;;;;;;4.80;1.33;;;24.80;99.90;;;;;;5089035;28;20321;-83
2022/03/17 06:34:21;;;;;;;6.45;1.27;;;24.70;99.90;;;;;;5086829;28;20245;-83
2022/03/17 06:36:52;;;;;;;5.20;1.27;;;24.70;99.90;;;;;;5088685;28;20225;-84
2022/03/17 06:39:24;;;;;;;4.45;1.20;;;24.80;99.90;;;;;;5087850;28;20216;-80
2022/03/17 06:41:55;;;;;;;6.55;1.38;;;24.80;99.90;;;;;;5086823;28;20219;-85
2022/03/17 06:44:26;;;;;;;5.28;1.25;;;24.70;99.90;;;;;;5088292;28;20189;-88
2022/03/17 06:46:56;;;;;;;5.88;1.20;;;24.80;99.90;;;;;;5088375;28;20192;-84
2022/03/17 06:49:27;;;;;;;7.85;1.13;;;24.80;99.90;;;;;;5085889;28;20181;-87
2022/03/17 06:51:58;;;;;;;6.00;1.45;;;24.80;99.90;;;;;;5078217;28;20193;-85
2022/03/17 06:54:31;;;;;;;7.93;1.50;;;24.80;99.90;;;;;;5077105;28;20213;-83
2022/03/17 06:57:01;;;;;;;8.50;1.50;;;24.80;99.90;;;;;;5075326;28;20189;-82
2022/03/17 06:59:32;;;;;;;3.88;1.20;;;24.80;99.90;;;;;;5076028;28;20196;-84
2022/03/17 07:02:02;;;;;;;7.82;1.55;;;24.80;99.90;;;;;;5079490;28;20563;-85
2022/03/17 07:04:34;;;;;;;7.47;1.17;;;24.80;99.90;;;;;;5076043;28;20238;-80
2022/03/17 07:07:06;;;;;;;4.47;1.25;;;24.70;99.90;;;;;;5074560;28;20594;-77
2022/03/17 07:09:42;;;;;;;3.20;1.20;;;24.70;99.90;;;;;;5080708;28;20189;-78
2022/03/17 07:12:13;;;;;;;6.45;1.05;;;24.60;99.90;;;;;;5074598;28;20195;-77
2022/03/17 07:14:44;;;;;;;5.25;0.90;;;24.60;99.90;;;;;;5075033;28;20264;-78
2022/03/17 07:17:14;;;;;;;5.53;1.17;;;24.50;99.90;;;;;;5078873;28;20290;-79
2022/03/17 07:19:45;;;;;;;3.92;1.05;;;24.50;99.90;;;;;;5076743;28;20193;-83
2022/03/17 07:22:15;;;;;;;5.03;1.10;;;24.40;99.90;;;;;;5076426;28;20188;-85
2022/03/17 07:24:48;;;;;;;4.50;0.90;;;24.40;99.90;;;;;;5074875;28;20810;-84
2022/03/17 07:27:19;;;;;;;5.05;1.27;;;24.30;99.90;;;;;;5075240;28;20527;-84
2022/03/17 07:29:49;;;;;;;4.20;1.05;;;24.30;99.90;;;;;;5079061;28;20196;-86
2022/03/17 07:32:20;;;;;;;3.60;0.93;;;24.30;99.90;;;;;;5080078;28;20185;-83
2022/03/17 07:34:51;;;;;;;5.00;1.10;;;24.20;99.90;;;;;;5074569;28;20193;-85
2022/03/17 07:37:22;;;;;;;4.70;0.93;;;24.20;99.90;;;;;;5074627;28;20303;-84
2022/03/17 07:39:57;;;;;;;4.15;1.23;;;24.20;99.90;;;;;;5075085;28;20189;-82
2022/03/17 07:42:28;;;;;;;3.42;0.70;;;24.10;99.90;;;;;;5073748;28;20215;-84
2022/03/17 07:44:58;;;;;;;4.13;1.20;;;24.10;99.90;;;;;;5079659;22;20245;-86
2022/03/17 07:47:30;;;;;;;9.05;1.33;;;24.10;99.90;;;;;;5034566;28;20205;-88
2022/03/17 07:50:01;;;;;;;2.92;1.02;;;24.00;99.90;;;;;;5034421;28;20273;-80
2022/03/17 07:52:31;;;;;;;5.30;1.25;;;24.00;99.90;;;;;;5034185;28;20273;-85
2022/03/17 07:55:04;;;;;;;3.55;1.00;;;24.00;99.90;;;;;;5033219;28;20595;-84
2022/03/17 07:57:35;;;;;;;3.75;0.90;;;24.00;99.90;;;;;;5033371;28;20276;-87
2022/03/17 08:00:07;;;;;;;5.18;1.02;;;23.90;99.90;;;;;;5033711;28;20206;-87
2022/03/17 08:02:37;;;;;;;4.15;0.98;;;23.90;99.90;;;;;;5033270;28;20248;-86
2022/03/17 08:05:09;;;;;;;5.50;1.20;;;23.90;99.90;;;;;;5033458;28;20186;-86
2022/03/17 08:07:39;;;;;;;5.13;0.88;;;23.90;99.90;;;;;;5030476;28;20256;-87
2022/03/17 08:10:15;;;;;;;5.43;1.00;;;23.80;99.90;;;;;;5031903;28;20182;-93
2022/03/17 08:12:46;;;;;;;8.00;1.00;;;23.80;99.90;;;;;;5032575;28;20197;-85
2022/03/17 08:15:17;;;;;;;5.45;1.08;;;23.80;99.90;;;;;;5031591;28;20190;-86
2022/03/17 08:17:48;;;;;;;3.58;1.10;;;23.80;99.90;;;;;;5032361;28;20621;-85
2022/03/17 08:20:18;;;;;;;7.57;1.10;;;23.70;99.90;;;;;;5032741;28;20194;-77
2022/03/17 08:22:50;;;;;;;7.75;1.30;;;23.70;99.90;;;;;;5023380;28;20221;-82
2022/03/17 08:25:22;;;;;;;4.47;1.00;;;23.70;99.90;;;;;;5032201;28;20218;-88
2022/03/17 08:27:54;;;;;;;6.50;1.13;;;23.70;99.90;;;;;;5033968;28;20198;-83
2022/03/17 08:30:25;;;;;;;7.70;1.13;;;23.70;99.90;;;;;;5030777;28;20197;-86
2022/03/17 08:32:56;;;;;;;2.95;1.02;;;23.60;99.90;;;;;;5025348;28;20198;-84
2022/03/17 08:35:27;;;;;;;4.88;1.38;;;23.60;99.90;;;;;;5032544;28;20183;-86
2022/03/17 08:37:58;;;;;;;5.35;1.17;;;23.60;99.90;;;;;;5032565;28;20226;-86
2022/03/17 08:40:31;;;;;;;8.48;1.45;;;23.60;99.90;;;;;;5030149;28;20193;-84
2022/03/17 08:43:01;;;;;;;6.05;1.40;;;23.60;99.90;;;;;;5028101;28;20194;-85
2022/03/17 08:51:05;;;;;;;9.13;1.60;;;23.50;99.90;;;;;;5012887;28;20194;-83
2022/03/17 08:53:36;;;;;;;5.70;1.08;;;23.50;99.90;;;;;;5010723;28;20241;-81
2022/03/17 08:56:09;;;;;;;5.65;1.20;;;23.40;99.90;;;;;;5013621;28;20198;-78
2022/03/17 08:58:39;;;;;;;6.10;1.30;;;23.40;99.90;;;;;;5012565;28;20211;-84
2022/03/17 09:01:11;;;;;;;6.00;1.00;;;23.40;99.90;;;;;;5012447;28;20257;-82
2022/03/17 09:03:42;;;;;;;5.95;1.02;;;23.40;99.90;;;;;;5017410;28;20567;-84
2022/03/17 09:06:13;;;;;;;5.43;1.10;;;23.40;99.90;;;;;;5007988;28;20277;-84
2022/03/17 09:08:44;;;;;;;5.00;1.20;;;23.40;99.90;;;;;;5012708;28;20206;-85
2022/03/17 09:11:17;;;;;;;3.97;1.35;;;23.40;99.90;;;;;;5013106;28;20670;-83
2022/03/17 09:13:49;;;;;;;5.47;1.40;;;23.40;99.90;;;;;;5012688;28;20575;-83
2022/03/17 09:16:20;;;;;;;5.68;1.50;;;23.40;99.90;;;;;;5013122;28;20193;-83
2022/03/17 09:18:51;;;;;;;3.40;1.10;;;23.40;99.90;;;;;;5012241;28;20269;-84
2022/03/17 09:21:21;;;;;;;6.45;1.33;;;23.30;99.90;;;;;;5013538;28;20249;-82
2022/03/17 09:23:52;;;;;;;4.28;1.05;;;23.40;99.90;;;;;;5008486;28;20249;-82
2022/03/17 09:26:24;;;;;;;5.35;1.30;;;23.30;99.90;;;;;;5012507;28;20186;-84
2022/03/17 09:28:55;;;;;;;5.75;1.20;;;23.30;99.90;;;;;;5010296;28;20187;-84
2022/03/17 09:31:26;;;;;;;5.05;1.20;;;23.30;99.90;;;;;;5019025;28;20322;-87
2022/03/17 09:33:57;;;;;;;6.60;1.20;;;23.30;99.90;;;;;;5010712;28;20245;-83
2022/03/17 09:36:27;;;;;;;5.32;1.40;;;23.30;99.90;;;;;;5006337;28;20367;-83
2022/03/17 09:41:46;;;;;;;4.10;1.10;;;23.20;99.90;;;;;;5009174;28;20198;-83
2022/03/17 09:44:18;;;;;;;6.50;1.45;;;23.20;99.90;;;;;;4997110;28;20215;-82
2022/03/17 09:46:49;;;;;;;6.00;1.23;;;23.20;99.90;;;;;;5009033;28;20230;-82
2022/03/17 09:49:21;;;;;;;6.93;1.20;;;23.20;99.90;;;;;;5003408;28;20274;-83
2022/03/17 09:51:55;;;;;;;6.72;1.33;;;23.20;99.90;;;;;;5005266;28;20192;-83
2022/03/17 09:54:26;;;;;;;3.60;1.10;;;23.20;99.90;;;;;;5001317;28;20194;-83
2022/03/17 09:56:58;;;;;;;7.30;1.30;;;23.20;99.90;;;;;;5006593;28;20187;-83
2022/03/17 09:59:29;;;;;;;6.47;1.25;;;23.20;99.90;;;;;;5007170;28;20221;-84
2022/03/17 10:02:00;;;;;;;8.52;1.33;;;23.20;99.90;;;;;;5007937;28;20192;-82
2022/03/17 10:04:35;;;;;;;10.63;1.15;;;23.20;99.90;;;;;;5008473;28;20270;-83
2022/03/17 10:07:06;;;;;;;4.75;1.15;;;23.20;99.90;;;;;;5010229;28;20236;-82
2022/03/17 10:09:36;;;;;;;6.97;1.13;;;23.20;99.90;;;;;;5006001;28;20639;-82
2022/03/17 10:12:11;;;;;;;5.28;1.30;;;23.10;99.90;;;;;;5012042;28;20187;-84
2022/03/17 10:14:42;;;;;;;8.40;1.50;;;23.10;99.90;;;;;;5011876;28;20186;-83
2022/03/17 10:17:32;;;;;;;5.35;1.20;;;23.10;99.90;;;;;;5004170;28;20195;-83
2022/03/17 10:20:16;;;;;;;5.68;1.27;;;23.10;99.90;;;;;;5010080;28;20211;-82
2022/03/17 10:22:48;;;;;;;5.93;1.40;;;23.10;99.90;;;;;;5006241;28;20199;-83
2022/03/17 10:25:21;;;;;;;9.75;1.77;;;23.10;99.90;;;;;;5012655;28;20250;-82
2022/03/17 10:27:55;;;;;;;5.32;1.35;;;23.10;99.90;;;;;;5015532;28;20202;-83
2022/03/17 10:30:27;;;;;;;6.78;1.33;;;23.10;99.90;;;;;;5006594;28;20190;-82
2022/03/17 10:33:00;;;;;;;5.53;1.15;;;23.10;99.90;;;;;;5014366;28;20199;-82
2022/03/17 10:35:34;;;;;;;5.00;1.10;;;23.10;99.90;;;;;;5015077;28;20322;-83
2022/03/17 10:38:13;;;;;;;5.75;1.23;;;23.00;99.90;;;;;;5010184;28;20199;-83
2022/03/17 10:40:44;;;;;;;5.88;1.30;;;23.00;99.90;;;;;;5013040;28;20191;-84
2022/03/17 10:43:22;;;;;;;7.53;1.25;;;23.00;99.90;;;;;;5014855;28;20245;-82
2022/03/17 10:46:07;;;;;;;5.03;1.23;;;23.00;99.90;;;;;;5011003;28;20317;-82
2022/03/17 10:48:54;;;;;;;7.25;1.50;;;23.00;99.90;;;;;;5010416;28;20191;-84
2022/03/17 10:51:37;;;;;;;8.48;1.40;;;23.10;99.90;;;;;;5014047;28;20191;-83
2022/03/17 10:54:09;;;;;;;8.55;1.38;;;23.00;99.90;;;;;;5014567;28;20241;-84
2022/03/17 10:56:41;;;;;;;8.20;1.50;;;23.10;99.90;;;;;;4999425;28;20187;-82
2022/03/17 10:59:19;;;;;;;3.83;1.15;;;23.10;99.90;;;;;;5015527;28;20230;-83
2022/03/17 11:01:50;;;;;;;8.23;1.50;;;23.10;99.90;;;;;;5008223;28;20227;-83
2022/03/17 11:04:21;;;;;;;10.32;1.50;;;23.10;99.90;;;;;;5015417;28;20195;-82
2022/03/17 11:06:54;;;;;;;6.85;1.38;;;23.10;99.90;;;;;;5010939;28;20188;-82
2022/03/17 11:09:25;;;;;;;7.30;1.55;;;23.10;99.90;;;;;;5010772;28;20198;-82
2022/03/17 11:11:56;;;;;;;9.70;1.60;;;23.00;99.90;;;;;;5010184;28;20183;-81
2022/03/17 11:14:29;;;;;;;8.00;1.80;;;23.00;99.90;;;;;;5010992;28;20187;-82
2022/03/17 11:17:02;;;;;;;8.73;1.45;;;23.00;99.90;;;;;;5014783;28;20195;-82
2022/03/17 11:19:34;;;;;;;7.18;1.42;;;23.00;99.90;;;;;;5009492;28;20206;-84
2022/03/17 11:22:10;;;;;;;6.18;1.30;;;23.00;99.90;;;;;;5012297;28;20241;-84
2022/03/17 11:24:41;;;;;;;5.68;1.27;;;23.00;99.90;;;;;;5008594;28;20229;-85
2022/03/17 11:27:14;;;;;;;8.43;1.30;;;23.00;99.90;;;;;;5012294;28;20187;-83
2022/03/17 11:29:48;;;;;;;4.70;1.45;;;23.00;99.90;;;;;;5012316;28;20265;-84
2022/03/17 11:32:31;;;;;;;7.78;1.30;;;23.00;99.90;;;;;;5013040;28;20281;-84
2022/03/17 11:35:12;;;;;;;9.63;1.60;;;23.00;99.90;;;;;;5012743;28;20658;-82
2022/03/17 11:37:43;;;;;;;5.65;1.35;;;23.00;99.90;;;;;;5013724;28;20191;-83
2022/03/17 11:40:15;;;;;;;13.57;1.70;;;23.00;99.90;;;;;;5014388;28;20261;-83
2022/03/17 11:42:52;;;;;;;7.55;1.88;;;22.90;99.90;;;;;;5010027;28;20637;-83
2022/03/17 11:45:42;;;;;;;5.68;1.35;;;22.90;99.90;;;;;;5012923;28;20249;-83
2022/03/17 11:48:14;;;;;;;5.93;1.48;;;22.90;99.90;;;;;;5012216;28;20195;-83
2022/03/17 11:50:51;;;;;;;7.80;1.40;;;22.90;99.90;;;;;;5012890;28;20191;-82
2022/03/17 11:53:40;;;;;;;9.25;1.58;;;22.90;99.90;;;;;;5013933;28;20241;-83
2022/03/17 11:56:15;;;;;;;6.60;1.52;;;22.90;99.90;;;;;;5011495;28;20548;-82
2022/03/17 11:58:47;;;;;;;6.85;1.42;;;22.90;99.90;;;;;;5010703;28;20244;-82
2022/03/17 12:01:27;;;;;;;4.22;1.23;;;22.90;99.90;;;;;;5013283;28;20272;-83
2022/03/17 12:03:59;;;;;;;4.63;1.40;;;22.90;99.90;;;;;;5013135;28;20524;-82
2022/03/17 12:06:30;;;;;;;6.72;1.20;;;22.90;99.90;;;;;;5013567;28;20249;-83
2022/03/17 12:09:02;;;;;;;3.33;1.15;;;22.90;99.90;;;;;;5012945;28;20198;-82
2022/03/17 12:11:35;;;;;;;6.05;1.30;;;22.80;99.90;;;;;;5012188;28;20736;-83
2022/03/17 12:14:21;;;;;;;5.93;1.55;;;22.80;99.90;;;;;;5011381;28;20199;-83
2022/03/17 12:16:57;;;;;;;8.90;1.63;;;22.80;99.90;;;;;;5013154;28;20191;-83
2022/03/17 12:19:33;;;;;;;5.43;1.40;;;22.80;99.90;;;;;;5013343;28;20219;-83
2022/03/17 12:22:37;;;;;;;7.63;1.50;;;22.80;99.90;;;;;;5011827;28;20194;-83
2022/03/17 12:25:16;;;;;;;7.88;1.55;;;22.80;99.90;;;;;;5011218;28;20252;-83
2022/03/17 12:27:51;;;;;;;3.92;1.10;;;22.80;99.90;;;;;;5002866;28;20195;-82
2022/03/17 12:30:23;;;;;;;5.57;1.38;;;22.80;99.90;;;;;;5013117;28;20193;-82
2022/03/17 12:32:56;;;;;;;6.10;1.45;;;22.80;99.90;;;;;;5013077;28;20596;-83
2022/03/17 12:35:28;;;;;;;5.45;1.30;;;22.80;99.90;;;;;;5012647;28;20199;-82
2022/03/17 12:38:03;;;;;;;8.75;1.65;;;22.80;99.90;;;;;;5012933;28;20283;-81
2022/03/17 12:40:36;;;;;;;5.05;1.70;;;22.80;99.90;;;;;;5012301;28;20218;-83
2022/03/17 12:43:15;;;;;;;7.65;1.63;;;22.80;99.90;;;;;;5011792;28;20233;-83
2022/03/17 12:45:47;;;;;;;9.10;1.55;;;22.70;99.90;;;;;;5012366;28;20314;-82
2022/03/17 12:48:20;;;;;;;4.90;1.30;;;22.80;99.90;;;;;;5011619;28;20634;-83
2022/03/17 12:50:51;;;;;;;10.95;1.67;;;22.80;99.90;;;;;;5012305;28;20187;-82
2022/03/17 12:53:21;;;;;;;6.10;1.70;;;22.70;99.90;;;;;;5012774;28;20187;-82
2022/03/17 12:55:55;;;;;;;7.53;1.77;;;22.70;99.90;;;;;;5012731;28;20226;-82
2022/03/17 12:58:25;;;;;;;5.43;1.35;;;22.80;99.90;;;;;;5012147;28;20206;-82
2022/03/17 13:00:56;;;;;;;9.05;1.67;;;22.70;99.90;;;;;;5012204;28;20225;-83
2022/03/17 13:03:29;;;;;;;6.90;1.75;;;22.70;99.90;;;;;;5004915;28;20198;-83
2022/03/17 13:08:49;;;;;;;8.18;1.80;;;22.70;99.90;;;;;;5000143;28;20193;-82
2022/03/17 13:14:24;;;;;;;7.40;1.45;;;22.70;99.90;;;;;;5012298;28;20669;-82
2022/03/17 13:17:02;;;;;;;5.68;1.50;;;22.60;99.90;;;;;;5010406;28;20277;-82
2022/03/17 13:19:45;;;;;;;6.38;1.63;;;22.60;99.90;;;;;;5011374;28;20238;-83
2022/03/17 13:22:23;;;;;;;7.72;1.40;;;22.60;99.90;;;;;;5011503;28;20205;-82
2022/03/17 13:25:05;;;;;;;6.47;1.30;;;22.60;99.90;;;;;;5009695;28;20201;-82
2022/03/17 13:27:37;;;;;;;11.35;1.75;;;22.60;99.90;;;;;;5012627;28;20191;-83
2022/03/17 13:30:12;;;;;;;7.57;1.50;;;22.60;99.90;;;;;;5012984;28;20626;-82
2022/03/17 13:32:44;;;;;;;8.00;1.80;;;22.50;99.90;;;;;;5009175;28;20692;-82
2022/03/17 13:35:17;;;;;;;7.03;1.67;;;22.50;99.90;;;;;;5011955;28;20233;-83
2022/03/17 13:37:49;;;;;;;6.30;1.45;;;22.50;99.90;;;;;;5005591;28;20219;-82
2022/03/17 13:40:21;;;;;;;4.63;1.48;;;22.50;99.90;;;;;;5005824;28;20211;-82
2022/03/17 13:43:09;;;;;;;5.05;1.50;;;22.50;99.90;;;;;;5009076;28;20191;-82
2022/03/17 13:45:41;;;;;;;6.45;1.50;;;22.40;99.90;;;;;;5029518;22;20607;-80
2022/03/17 13:48:13;;;;;;;5.10;1.40;;;22.40;99.90;;;;;;5027222;28;20301;-77
2022/03/17 13:50:53;;;;;;;5.82;1.50;;;22.40;99.90;;;;;;5031819;28;20256;-78
2022/03/17 13:53:30;;;;;;;4.53;1.60;;;22.40;99.90;;;;;;5028270;28;20191;-78
2022/03/17 13:56:01;;;;;;;5.57;1.50;;;22.40;99.90;;;;;;5030927;28;20194;-80
2022/03/17 13:58:32;;;;;;;7.22;1.80;;;22.40;99.90;;;;;;5031981;28;20193;-79
2022/03/17 14:01:12;;;;;;;8.38;1.60;;;22.40;99.90;;;;;;5030641;28;20241;-77
2022/03/17 14:03:48;;;;;;;8.38;1.95;;;22.30;99.90;;;;;;5032335;28;20209;-79
2022/03/17 14:06:21;;;;;;;6.65;1.58;;;22.30;99.90;;;;;;5035290;28;20190;-83
2022/03/17 14:08:52;;;;;;;9.13;1.88;;;22.30;99.90;;;;;;5030390;28;20193;-80
2022/03/17 14:11:26;;;;;;;5.93;1.27;;;22.30;99.90;;;;;;5035523;28;20641;-82
2022/03/17 14:13:57;;;;;;;8.48;1.90;;;22.30;99.90;;;;;;5031964;28;20194;-80
2022/03/17 14:16:28;;;;;;;6.30;1.77;;;22.30;99.90;;;;;;5029476;28;20257;-80
2022/03/17 14:19:00;;;;;;;5.05;1.83;;;22.30;99.90;;;;;;5027985;28;20248;-80
2022/03/17 14:21:33;;;;;;;9.70;1.80;;;22.30;99.90;;;;;;5035315;28;20276;-79
2022/03/17 14:24:12;;;;;;;4.88;1.40;;;22.30;99.90;;;;;;5029442;28;20189;-76
2022/03/17 14:26:45;;;;;;;7.18;1.60;;;22.30;99.90;;;;;;5034995;28;20201;-77
2022/03/17 14:29:16;;;;;;;6.60;1.50;;;22.30;99.90;;;;;;5030885;28;20703;-76
2022/03/17 14:31:48;;;;;;;7.78;1.52;;;22.30;99.90;;;;;;5035176;28;20646;-76
2022/03/17 14:34:22;;;;;;;3.83;1.33;;;22.30;99.90;;;;;;5035384;28;20193;-78
2022/03/17 14:36:56;;;;;;;6.75;1.60;;;22.30;99.90;;;;;;5035036;28;20282;-83
2022/03/17 14:39:29;;;;;;;7.13;1.50;;;22.30;99.90;;;;;;5035403;28;20181;-80
2022/03/17 14:42:00;;;;;;;5.47;1.55;;;22.30;99.90;;;;;;5035695;28;20190;-79
2022/03/17 14:44:31;;;;;;;5.78;1.92;;;22.20;99.90;;;;;;5028714;28;20210;-81
2022/03/17 14:47:01;;;;;;;5.38;1.50;;;22.30;99.90;;;;;;5016102;28;20240;-81
2022/03/17 14:49:32;;;;;;;3.95;1.40;;;22.30;99.90;;;;;;5020157;28;20198;-82
2022/03/17 14:52:05;;;;;;;4.22;1.50;;;22.30;99.90;;;;;;5016237;28;20195;-77
2022/03/17 14:54:36;;;;;;;5.07;1.40;;;22.30;99.90;;;;;;5023745;28;20190;-77
2022/03/17 14:57:07;;;;;;;5.28;1.45;;;22.30;99.90;;;;;;5013449;28;20188;-76
2022/03/17 14:59:37;;;;;;;4.32;1.40;;;22.30;99.90;;;;;;5014973;28;20261;-76
2022/03/17 15:02:08;;;;;;;7.63;1.52;;;22.30;99.90;;;;;;5012814;28;20187;-77
2022/03/17 15:04:40;;;;;;;7.80;1.95;;;22.30;99.90;;;;;;5026713;28;20191;-77
2022/03/17 15:07:12;;;;;;;5.43;1.35;;;22.20;99.90;;;;;;5014527;28;20187;-82
2022/03/17 15:09:43;;;;;;;8.52;1.70;;;22.20;99.90;;;;;;5015473;28;20187;-81
2022/03/17 15:12:13;;;;;;;6.65;1.65;;;22.20;99.90;;;;;;5011397;28;20214;-81
2022/03/17 15:14:44;;;;;;;8.00;1.50;;;22.20;99.90;;;;;;5012118;28;20612;-77
2022/03/17 15:17:14;;;;;;;5.90;1.60;;;22.20;99.90;;;;;;5017488;28;20190;-79
2022/03/17 15:19:45;;;;;;;5.63;1.63;;;22.20;99.90;;;;;;5031569;28;20186;-80
2022/03/17 15:22:17;;;;;;;7.60;1.70;;;22.20;99.90;;;;;;5008270;28;20195;-76
2022/03/17 15:24:48;;;;;;;8.00;1.73;;;22.20;99.90;;;;;;5015861;28;20191;-76
2022/03/17 15:30:12;;;;;;;7.68;1.55;;;22.10;99.90;;;;;;5015938;28;20233;-76
2022/03/17 15:32:44;;;;;;;4.97;1.60;;;22.10;99.90;;;;;;5015327;28;20187;-76
2022/03/17 15:35:15;;;;;;;10.32;1.80;;;22.10;99.90;;;;;;5028743;28;20198;-76
2022/03/17 15:37:48;;;;;;;7.43;1.60;;;22.00;99.90;;;;;;5015246;28;20195;-81
2022/03/17 15:40:19;;;;;;;11.38;2.08;;;22.00;99.90;;;;;;5008505;28;20211;-80
2022/03/17 15:42:50;;;;;;;11.18;1.73;;;22.00;99.90;;;;;;5018504;28;20220;-81
2022/03/17 15:45:21;;;;;;;7.03;1.65;;;22.00;99.90;;;;;;5007458;28;20247;-82
2022/03/17 15:47:53;;;;;;;7.28;1.60;;;22.00;99.90;;;;;;5013404;28;20582;-81
2022/03/17 15:50:23;;;;;;;9.13;2.00;;;22.00;99.90;;;;;;5007852;28;20187;-84
2022/03/17 15:52:56;;;;;;;7.68;1.75;;;22.00;99.90;;;;;;5021198;28;20598;-80
2022/03/17 15:55:27;;;;;;;6.35;1.70;;;22.00;99.90;;;;;;5023050;28;20187;-81
2022/03/17 15:57:58;;;;;;;8.73;1.70;;;21.90;99.90;;;;;;5030919;28;20588;-79
2022/03/17 16:00:30;;;;;;;5.57;1.80;;;22.00;99.90;;;;;;5023736;28;20665;-80
2022/03/17 16:03:03;;;;;;;5.93;1.63;;;21.90;99.90;;;;;;5029613;28;20201;-78
2022/03/17 16:05:34;;;;;;;7.47;1.75;;;21.90;99.90;;;;;;5016432;28;20183;-79
2022/03/17 16:08:07;;;;;;;8.07;1.55;;;21.90;99.90;;;;;;5016993;28;20191;-79
2022/03/17 16:16:10;;;;;;;7.70;1.58;;;22.00;99.90;;;;;;5006996;28;20309;-79
2022/03/17 16:18:41;;;;;;;7.60;1.70;;;22.00;99.90;;;;;;5026627;28;20190;-83
2022/03/17 16:21:12;;;;;;;4.63;1.50;;;22.00;99.90;;;;;;5016166;28;20211;-76
2022/03/17 16:23:44;;;;;;;6.53;1.80;;;22.00;99.90;;;;;;5030013;28;20244;-76
2022/03/17 16:26:15;;;;;;;6.60;1.83;;;21.90;99.90;;;;;;5022303;28;20198;-77
2022/03/17 16:28:46;;;;;;;7.68;1.80;;;21.90;99.90;;;;;;5023546;28;20214;-76
2022/03/17 16:31:21;;;;;;;9.40;1.90;;;22.00;99.90;;;;;;5022329;28;20248;-76
2022/03/17 16:33:53;;;;;;;9.57;1.90;;;21.90;99.90;;;;;;5019452;28;20561;-76
2022/03/17 16:36:24;;;;;;;7.50;2.10;;;21.90;99.90;;;;;;5015609;28;20196;-79
2022/03/17 16:38:58;;;;;;;9.13;1.70;;;21.90;99.90;;;;;;5019043;28;20191;-81
2022/03/17 16:41:29;;;;;;;8.65;1.73;;;21.90;99.90;;;;;;5014200;28;20273;-79
2022/03/17 16:43:59;;;;;;;8.98;1.80;;;21.90;99.90;;;;;;5016361;28;20214;-83
2022/03/17 16:46:30;;;;;;;10.77;2.03;;;21.80;99.90;;;;;;5013869;28;20234;-84
2022/03/17 16:49:00;;;;;;;8.43;1.92;;;21.80;99.90;;;;;;5022387;28;20195;-81
2022/03/17 16:51:31;;;;;;;9.98;1.90;;;21.80;99.90;;;;;;5017612;28;20230;-80
2022/03/17 16:54:04;;;;;;;9.93;1.90;;;21.80;99.90;;;;;;5021792;28;20230;-83
2022/03/17 16:56:35;;;;;;;8.02;1.92;;;21.70;99.90;;;;;;5022333;28;20182;-78
2022/03/17 16:59:05;;;;;;;7.43;1.65;;;21.70;99.90;;;;;;5020925;28;20190;-77
2022/03/17 17:01:36;;;;;;;5.47;1.50;;;21.70;99.90;;;;;;5016754;28;20206;-77
2022/03/17 17:04:08;;;;;;;6.00;1.75;;;21.70;99.90;;;;;;5025282;28;20182;-76
2022/03/17 17:06:39;;;;;;;11.23;2.17;;;21.70;99.90;;;;;;5024832;28;20186;-76
2022/03/17 17:09:12;;;;;;;7.10;1.88;;;21.70;99.90;;;;;;5014376;28;20253;-79
2022/03/17 17:11:43;;;;;;;8.23;1.95;;;21.70;99.90;;;;;;5023698;28;20186;-76
2022/03/17 17:14:14;;;;;;;7.95;2.10;;;21.60;99.90;;;;;;5024361;28;20197;-78
2022/03/17 17:16:51;;;;;;;6.30;1.85;;;21.60;99.90;;;;;;5014167;28;20210;-77
2022/03/17 17:19:25;;;;;;;7.22;2.03;;;21.60;99.90;;;;;;5012638;28;20183;-76
2022/03/17 17:21:56;;;;;;;9.45;1.90;;;21.60;99.90;;;;;;5026557;28;20213;-77
2022/03/17 17:32:45;;;;;;;6.57;1.80;;;21.50;99.90;;;;;;5015906;28;20194;-76
2022/03/17 17:35:16;;;;;;;5.93;2.00;;;21.50;99.90;;;;;;5017139;28;20210;-77